Columbus, Ohio
Traffic Map
Current Weather Conditions
Columbus, Ohio
Overcast Moderate Rain
Overcast

Feels Like: -1°
Wind Chill: -1° Ceiling: 4000
Heat Index: Visibility: 7mi
Dew Point: Wind: 9mph
Humidity: 89% Direction: 60° (ENE)
Pressure: 30.43in Gusts: 0mph
Raw Report DataKCMH 221051Z 06008KT 7SM RA SCT031 BKN040 OVC080 03/01 A3043 RMK AO2 SLP311 P0005 T00280011 $
Traffic Incident Summary
Active as of:
Severity:
Category:
InformationThere was an issue retrieving the traffic information for this location. Please try a different location or try again shortly.
Advertisements